Akvile — LYJM — position and weather

sailwx.info

Track history (hours):
 
Tides and Currents Weather Stations Pressure Air Temp Water Temp Dewpoint Dewpoint Depression Visibility Wind Speed Wind Dir Waves Ship Positions

Akvile

Last reported at 2014-Oct-30 06:33 UTC. Time now 2014-Oct-30 16:08 UTC.
Position N 43°17' E 009°40'.

Length 103 m; draft 7.3 m.

Type: Ship (hazmat cat A). MMSI: 277073000.

Date/timePositionNaut miles runAvg speedWind from/ knotsBaromVisibWave heightAir tempDewpointWater temp
2014-Oct-30 06:33N 43°17' E 009°40'1111.4
2014-Oct-30 05:34N 43°29' E 009°41'1111.2
2014-Oct-30 04:33N 43°40' E 009°43'1111.1
2014-Oct-30 03:34N 43°51' E 009°45'1111.3
2014-Oct-30 02:34N 44°01' E 009°52'5 5.4
2014-Oct-30 01:33N 44°06' E 009°51'0 0.0
2014-Oct-30 00:33N 44°06' E 009°51'0 0.0
2014-Oct-29 23:33N 44°06' E 009°51'0 0.0
2014-Oct-29 22:33N 44°06' E 009°51'0 0.0
2014-Oct-29 21:33N 44°06' E 009°51'0 0.0
2014-Oct-29 20:33N 44°06' E 009°51'0 0.0
2014-Oct-29 19:33N 44°06' E 009°51'0 0.0
2014-Oct-29 18:33N 44°06' E 009°51'0 0.0
2014-Oct-29 17:33N 44°06' E 009°51'0 0.0
2014-Oct-29 16:33N 44°06' E 009°51'0 0.0
2014-Oct-29 15:30N 44°06' E 009°51'0 0.0
2014-Oct-29 14:33N 44°06' E 009°51'0 0.0
2014-Oct-29 13:33N 44°06' E 009°51'0 0.0
2014-Oct-29 12:33N 44°06' E 009°51'1 0.8
2014-Oct-29 11:30N 44°07' E 009°50'0 0.0
2014-Oct-29 10:33N 44°07' E 009°50'0 0.0
2014-Oct-29 09:33N 44°07' E 009°50'0 0.0
2014-Oct-29 08:33N 44°07' E 009°50'0 0.0
2014-Oct-29 07:33N 44°07' E 009°50'0 0.0
2014-Oct-29 06:33N 44°07' E 009°50'0 0.0
2014-Oct-29 05:33N 44°07' E 009°50'0 0.0
2014-Oct-29 04:33N 44°07' E 009°50'0 0.0
2014-Oct-29 03:33N 44°07' E 009°50'0 0.0
2014-Oct-29 02:33N 44°07' E 009°50'0 0.0
2014-Oct-29 01:33N 44°07' E 009°50'0 0.0
2014-Oct-29 00:33N 44°07' E 009°50'0 0.0
2014-Oct-28 23:33N 44°07' E 009°50'0 0.0
2014-Oct-28 22:33N 44°07' E 009°50'0 0.0
2014-Oct-28 21:33N 44°07' E 009°50'0 0.0
2014-Oct-28 20:33N 44°07' E 009°50'0 0.0
2014-Oct-28 19:33N 44°07' E 009°50'0 0.0
2014-Oct-28 18:33N 44°07' E 009°50'0 0.0
2014-Oct-28 17:33N 44°07' E 009°50'0 0.0
2014-Oct-28 16:33N 44°07' E 009°50'0 0.0
2014-Oct-28 15:33N 44°07' E 009°50'0 0.0
2014-Oct-28 14:33N 44°07' E 009°50'0 0.0
2014-Oct-28 13:33N 44°07' E 009°50'0 0.0
2014-Oct-28 12:33N 44°07' E 009°50'0 0.0
2014-Oct-28 11:33N 44°07' E 009°50'0 0.0
2014-Oct-28 10:33N 44°07' E 009°50'0 0.0
2014-Oct-28 09:33N 44°07' E 009°50'0 0.0
2014-Oct-28 08:33N 44°07' E 009°50'0 0.0
2014-Oct-28 07:33N 44°07' E 009°50'0 0.0
2014-Oct-28 06:33N 44°07' E 009°50'0 0.0
2014-Oct-28 05:33N 44°07' E 009°50'0 0.0
2014-Oct-28 04:33N 44°07' E 009°50'0 0.0
2014-Oct-28 03:33N 44°07' E 009°50'0 0.0
2014-Oct-28 02:33N 44°07' E 009°50'0 0.0
2014-Oct-28 01:33N 44°07' E 009°50'0 0.0
2014-Oct-28 00:33N 44°07' E 009°50'0 0.0
2014-Oct-27 23:33N 44°07' E 009°50'0 0.0
2014-Oct-27 22:33N 44°07' E 009°50'0 0.0
2014-Oct-27 21:33N 44°07' E 009°50'0 0.0
2014-Oct-27 20:33N 44°07' E 009°50'0 0.0
2014-Oct-27 19:33N 44°07' E 009°50'0 0.0
2014-Oct-27 18:33N 44°07' E 009°50'0 0.0
2014-Oct-27 17:33N 44°07' E 009°50'0 0.0
2014-Oct-27 16:33N 44°07' E 009°50'0 0.0
2014-Oct-27 15:33N 44°07' E 009°50'1 0.6
2014-Oct-27 14:33N 44°06' E 009°50'9 8.5
2014-Oct-27 13:33N 43°57' E 009°51'1110.8
2014-Oct-27 12:33N 43°48' E 009°44'1312.6
2014-Oct-27 11:33N 43°36' E 009°41'1312.8
2014-Oct-27 10:34N 43°23' E 009°39'1211.9
2014-Oct-27 09:33N 43°11' E 009°38'  
2014-Oct-20 13:13N 37°24' E 023°59'16 2.8
2014-Oct-20 07:18N 37°40' E 024°05'  
Track history (hours):
 
Tides and Currents Weather Stations Pressure Air Temp Water Temp Dewpoint Dewpoint Depression Visibility Wind Speed Wind Dir Waves Ship Positions

Akvile

Last reported at 2014-Oct-30 06:33 UTC. Time now 2014-Oct-30 16:08 UTC.
Position N 43°17' E 009°40'.

Length 103 m; draft 7.3 m.

Type: Ship (hazmat cat A). MMSI: 277073000.

Date/timePositionNaut miles runAvg speedWind from/ knotsBaromVisibWave heightAir tempDewpointWater temp
2014-Oct-30 06:33N 43°17' E 009°40'1111.4
2014-Oct-30 05:34N 43°29' E 009°41'1111.2
2014-Oct-30 04:33N 43°40' E 009°43'1111.1
2014-Oct-30 03:34N 43°51' E 009°45'1111.3
2014-Oct-30 02:34N 44°01' E 009°52'5 5.4
2014-Oct-30 01:33N 44°06' E 009°51'0 0.0
2014-Oct-30 00:33N 44°06' E 009°51'0 0.0
2014-Oct-29 23:33N 44°06' E 009°51'0 0.0
2014-Oct-29 22:33N 44°06' E 009°51'0 0.0
2014-Oct-29 21:33N 44°06' E 009°51'0 0.0
2014-Oct-29 20:33N 44°06' E 009°51'0 0.0
2014-Oct-29 19:33N 44°06' E 009°51'0 0.0
2014-Oct-29 18:33N 44°06' E 009°51'0 0.0
2014-Oct-29 17:33N 44°06' E 009°51'0 0.0
2014-Oct-29 16:33N 44°06' E 009°51'0 0.0
2014-Oct-29 15:30N 44°06' E 009°51'0 0.0
2014-Oct-29 14:33N 44°06' E 009°51'0 0.0
2014-Oct-29 13:33N 44°06' E 009°51'0 0.0
2014-Oct-29 12:33N 44°06' E 009°51'1 0.8
2014-Oct-29 11:30N 44°07' E 009°50'0 0.0
2014-Oct-29 10:33N 44°07' E 009°50'0 0.0
2014-Oct-29 09:33N 44°07' E 009°50'0 0.0
2014-Oct-29 08:33N 44°07' E 009°50'0 0.0
2014-Oct-29 07:33N 44°07' E 009°50'0 0.0
2014-Oct-29 06:33N 44°07' E 009°50'0 0.0
2014-Oct-29 05:33N 44°07' E 009°50'0 0.0
2014-Oct-29 04:33N 44°07' E 009°50'0 0.0
2014-Oct-29 03:33N 44°07' E 009°50'0 0.0
2014-Oct-29 02:33N 44°07' E 009°50'0 0.0
2014-Oct-29 01:33N 44°07' E 009°50'0 0.0
2014-Oct-29 00:33N 44°07' E 009°50'0 0.0
2014-Oct-28 23:33N 44°07' E 009°50'0 0.0
2014-Oct-28 22:33N 44°07' E 009°50'0 0.0
2014-Oct-28 21:33N 44°07' E 009°50'0 0.0
2014-Oct-28 20:33N 44°07' E 009°50'0 0.0
2014-Oct-28 19:33N 44°07' E 009°50'0 0.0
2014-Oct-28 18:33N 44°07' E 009°50'0 0.0
2014-Oct-28 17:33N 44°07' E 009°50'0 0.0
2014-Oct-28 16:33N 44°07' E 009°50'0 0.0
2014-Oct-28 15:33N 44°07' E 009°50'0 0.0
2014-Oct-28 14:33N 44°07' E 009°50'0 0.0
2014-Oct-28 13:33N 44°07' E 009°50'0 0.0
2014-Oct-28 12:33N 44°07' E 009°50'0 0.0
2014-Oct-28 11:33N 44°07' E 009°50'0 0.0
2014-Oct-28 10:33N 44°07' E 009°50'0 0.0
2014-Oct-28 09:33N 44°07' E 009°50'0 0.0
2014-Oct-28 08:33N 44°07' E 009°50'0 0.0
2014-Oct-28 07:33N 44°07' E 009°50'0 0.0
2014-Oct-28 06:33N 44°07' E 009°50'0 0.0
2014-Oct-28 05:33N 44°07' E 009°50'0 0.0
2014-Oct-28 04:33N 44°07' E 009°50'0 0.0
2014-Oct-28 03:33N 44°07' E 009°50'0 0.0
2014-Oct-28 02:33N 44°07' E 009°50'0 0.0
2014-Oct-28 01:33N 44°07' E 009°50'0 0.0
2014-Oct-28 00:33N 44°07' E 009°50'0 0.0
2014-Oct-27 23:33N 44°07' E 009°50'0 0.0
2014-Oct-27 22:33N 44°07' E 009°50'0 0.0
2014-Oct-27 21:33N 44°07' E 009°50'0 0.0
2014-Oct-27 20:33N 44°07' E 009°50'0 0.0
2014-Oct-27 19:33N 44°07' E 009°50'0 0.0
2014-Oct-27 18:33N 44°07' E 009°50'0 0.0
2014-Oct-27 17:33N 44°07' E 009°50'0 0.0
2014-Oct-27 16:33N 44°07' E 009°50'0 0.0
2014-Oct-27 15:33N 44°07' E 009°50'1 0.6
2014-Oct-27 14:33N 44°06' E 009°50'9 8.5
2014-Oct-27 13:33N 43°57' E 009°51'1110.8
2014-Oct-27 12:33N 43°48' E 009°44'1312.6
2014-Oct-27 11:33N 43°36' E 009°41'1312.8
2014-Oct-27 10:34N 43°23' E 009°39'1211.9
2014-Oct-27 09:33N 43°11' E 009°38'  
2014-Oct-20 13:13N 37°24' E 023°59'16 2.8
2014-Oct-20 07:18N 37°40' E 024°05'  

Dump ship's entire track history